Data for 07/10/2005

Time Sea-Level Adjusted Pressure Absolute Pressure Temperature Relative Humidity Dew Point   
(mb) (inHg) (mb) (inHg) (C) (F) (%) (C) (F)
00:05 1017 30.03 846 24.98 13.9 56.9 76 9.8 49.6
00:10 1017 30.03 846 24.98 13.9 57 76 9.9 49.7
00:15 1017 30.03 846 24.98 13.9 57 76 9.8 49.7
00:20 1017 30.03 846 24.98 14 57.2 76 9.9 49.8
00:25 1017 30.03 846 24.98 14 57.2 76 9.9 49.8
00:30 1017 30.03 846 24.98 14 57.2 76 9.9 49.8
00:35 1017 30.03 847 25.01 14.2 57.5 76 10 49.9
00:40 1017 30.03 847 25.01 14.3 57.7 75 10 50
00:45 1017 30.03 847 25.01 14.2 57.5 76 10 50
00:50 1018 30.06 847 25.01 14.2 57.6 75 9.8 49.6
00:55 1017 30.03 847 25.01 14.4 57.9 74 9.9 49.8
01:00 1017 30.03 847 25.01 14.6 58.2 74 10.1 50.1
01:05 1018 30.06 847 25.01 14.6 58.3 75 10.2 50.4
01:10 1018 30.06 847 25.01 14.6 58.2 76 10.5 50.8
01:15 1018 30.06 847 25.01 14.3 57.8 80 11 51.8
01:20 1017 30.03 847 25.01 14.2 57.5 82 11.2 52.1
01:25 1017 30.03 846 24.98 14.1 57.3 83 11.2 52.2
01:30 1017 30.03 846 24.98 13.8 56.8 86 11.4 52.6
01:35 1017 30.03 846 24.98 13.5 56.3 86 11.3 52.3
01:40 1017 30.03 846 24.98 13.3 56 88 11.4 52.5
01:45 1017 30.03 846 24.98 13.2 55.8 90 11.6 52.8
01:50 1017 30.03 846 24.98 13 55.4 89 11.2 52.2
01:55 1017 30.03 846 24.98 12.9 55.2 88 11 51.8
02:00 1017 30.03 846 24.98 12.9 55.3 91 11.4 52.6
02:05 1017 30.03 846 24.98 12.9 55.3 88 10.9 51.7
02:10 1017 30.03 846 24.98 13 55.5 89 11.3 52.4
02:15 1017 30.03 846 24.98 13.2 55.7 86 10.9 51.7
02:20 1017 30.03 846 24.98 13.2 55.7 87 11.1 52
02:25 1017 30.03 846 24.98 13.2 55.7 89 11.4 52.5
02:30 1017 30.03 846 24.98 13 55.5 90 11.4 52.6
02:35 1017 30.03 846 24.98 12.9 55.2 90 11.3 52.4
02:40 1016 30 846 24.98 12.9 55.1 90 11.3 52.4
02:45 1016 30 846 24.98 12.9 55.1 91 11.5 52.6
02:50 1016 30 845 24.95 12.9 55.1 91 11.5 52.7
02:55 1016 30 845 24.95 12.8 55.1 88 10.9 51.5
03:00 1016 30 845 24.95 12.9 55.2 89 11.1 52
03:05 1016 30 845 24.95 13 55.4 90 11.5 52.7
03:10 1016 30 845 24.95 13.1 55.5 90 11.4 52.5
03:15 1016 30 845 24.95 13 55.3 88 11.1 51.9
03:20 1016 30 845 24.95 13 55.3 88 10.9 51.7
03:25 1016 30 845 24.95 12.9 55.2 88 10.9 51.7
03:30 1016 30 845 24.95 12.8 55.1 89 11.1 51.9
03:35 1016 30 845 24.95 12.8 55.1 89 11 51.8
03:40 1016 30 845 24.95 13 55.3 89 11.2 52.2
03:45 1016 30 845 24.95 12.9 55.2 90 11.3 52.3
03:50 1016 30 845 24.95 12.9 55.2 90 11.3 52.3
03:55 1016 30 845 24.95 13 55.3 90 11.4 52.6
04:00 1016 30 845 24.95 13.1 55.5 90 11.4 52.5
04:05 1016 30 845 24.95 13.1 55.5 89 11.3 52.3
04:10 1016 30 845 24.95 13 55.3 89 11.1 52
04:15 1016 30 845 24.95 13.1 55.6 87 11.1 52
04:20 1016 30 845 24.95 13.3 55.9 87 11.3 52.3
04:25 1016 30 845 24.95 13.3 56 82 10.3 50.6
04:30 1016 30 845 24.95 13.2 55.7 84 10.6 51
04:35 1016 30 845 24.95 13 55.4 83 10.1 50.3
04:40 1016 30 846 24.98 12.9 55.3 83 10.2 50.3
04:45 1016 30 846 24.98 12.9 55.3 82 9.9 49.8
04:50 1016 30 846 24.98 12.9 55.2 82 9.9 49.8
04:55 1016 30 846 24.98 12.8 55 81 9.7 49.4
05:00 1016 30 846 24.98 12.7 54.9 82 9.7 49.4
05:05 1016 30 846 24.98 12.8 55 82 9.8 49.7
05:10 1017 30.03 846 24.98 12.6 54.6 85 10.2 50.3
05:15 1017 30.03 846 24.98 12.4 54.3 83 9.7 49.4
05:20 1017 30.03 846 24.98 12.5 54.4 83 9.7 49.4
05:25 1017 30.03 846 24.98 12.5 54.5 82 9.5 49.1
05:30 1017 30.03 846 24.98 12.3 54.2 84 9.8 49.6
05:35 1017 30.03 846 24.98 12.1 53.7 86 9.8 49.6
05:40 1016 30 846 24.98 12 53.5 86 9.6 49.4
05:45 1016 30 846 24.98 11.9 53.4 86 9.7 49.4
05:50 1016 30 846 24.98 11.9 53.5 85 9.5 49
05:55 1017 30.03 846 24.98 11.9 53.4 85 9.5 49.1
06:00 1017 30.03 846 24.98 12.1 53.8 84 9.4 49
06:05 1017 30.03 846 24.98 12.3 54.1 84 9.6 49.4
06:10 1017 30.03 846 24.98 12.1 53.8 85 9.6 49.3
06:15 1017 30.03 846 24.98 12.1 53.8 86 9.9 49.7
06:20 1017 30.03 846 24.98 12.1 53.7 86 9.7 49.5
06:25 1017 30.03 846 24.98 12 53.6 86 9.7 49.5
06:30 1017 30.03 846 24.98 12 53.7 86 9.7 49.5
06:35 1017 30.03 846 24.98 12.1 53.7 85 9.6 49.3
06:40 1017 30.03 846 24.98 12.3 54.1 83 9.5 49
06:45 1017 30.03 846 24.98 12.5 54.4 82 9.4 49
06:50 1017 30.03 846 24.98 12.6 54.6 84 9.9 49.8
06:55 1017 30.03 846 24.98 12.5 54.4 85 10.1 50.2
07:00 1017 30.03 846 24.98 12.5 54.6 85 10.1 50.1
07:05 1017 30.03 846 24.98 12.5 54.5 86 10.2 50.3
07:10 1017 30.03 846 24.98 12.3 54.1 87 10.2 50.4
07:15 1017 30.03 846 24.98 12 53.6 87 10 50
07:20 1017 30.03 846 24.98 12 53.6 88 10 50.1
07:25 1017 30.03 846 24.98 12.1 53.9 88 10.2 50.3
07:30 1017 30.03 846 24.98 12.3 54.1 87 10.2 50.4
07:35 1017 30.03 846 24.98 12.2 54 86 10 50.1
07:40 1017 30.03 846 24.98 12.3 54.1 86 10 50
07:45 1017 30.03 846 24.98 12.4 54.4 84 9.8 49.6
07:50 1017 30.03 846 24.98 12.5 54.5 85 10.1 50.1
07:55 1017 30.03 846 24.98 12.8 55 81 9.6 49.3
08:00 1017 30.03 846 24.98 12.9 55.3 83 10.1 50.2
08:05 1017 30.03 846 24.98 13.2 55.8 81 10.1 50.1
08:10 1017 30.03 846 24.98 13.3 56 82 10.3 50.5
08:15 1017 30.03 846 24.98 13.4 56.1 79 9.9 49.8
08:20 1017 30.03 846 24.98 13.6 56.5 78 10 50
08:25 1017 30.03 846 24.98 13.7 56.6 76 9.6 49.4
08:30 1017 30.03 846 24.98 13.6 56.5 76 9.5 49.1
08:35 1017 30.03 846 24.98 13.7 56.7 74 9.2 48.6
08:40 1017 30.03 846 24.98 13.9 57 72 9 48.2
08:45 1017 30.03 846 24.98 14.1 57.3 73 9.3 48.7
08:50 1017 30.03 846 24.98 14.3 57.8 70 9.1 48.3
08:55 1017 30.03 846 24.98 14.4 58 70 9.1 48.4
09:00 1017 30.03 847 25.01 14.6 58.2 70 9.3 48.7
09:05 1017 30.03 847 25.01 14.7 58.5 72 9.7 49.5
09:10 1017 30.03 847 25.01 14.6 58.2 71 9.4 48.9
09:15 1017 30.03 847 25.01 14.3 57.8 76 10.1 50.2
09:20 1017 30.03 847 25.01 14.7 58.4 72 9.7 49.5
09:25 1017 30.03 847 25.01 14.7 58.5 73 10 50
09:30 1018 30.06 847 25.01 14.7 58.5 72 9.8 49.6
09:35 1018 30.06 847 25.01 15.4 59.6 69 9.7 49.4
09:40 1018 30.06 847 25.01 16 60.7 69 10.3 50.5
09:45 1017 30.03 847 25.01 16.2 61.2 68 10.3 50.6
09:50 1018 30.06 847 25.01 15.9 60.7 69 10.2 50.4
09:55 1018 30.06 847 25.01 15.9 60.6 68 10.1 50.2
10:00 1017 30.03 847 25.01 16.1 60.9 68 10.3 50.5
10:05 1017 30.03 847 25.01 15.8 60.5 71 10.5 51
10:10 1017 30.03 847 25.01 15.5 60 70 10.2 50.4
10:15 1018 30.06 847 25.01 15.3 59.5 70 9.9 49.8
10:20 1018 30.06 847 25.01 15.2 59.4 70 9.9 49.8
10:25 1018 30.06 847 25.01 15.1 59.2 70 9.8 49.6
10:30 1018 30.06 847 25.01 15 59.1 70 9.6 49.3
10:35 1018 30.06 847 25.01 14.8 58.6 70 9.5 49.1
10:40 1018 30.06 847 25.01 14.9 58.8 70 9.5 49.1
10:45 1018 30.06 847 25.01 14.6 58.3 71 9.4 48.9
10:50 1018 30.06 847 25.01 14.4 58 71 9.2 48.6
10:55 1018 30.06 847 25.01 14.7 58.4 70 9.4 48.9
11:00 1018 30.06 847 25.01 14.4 57.9 71 9.3 48.7
11:05 1018 30.06 847 25.01 14.7 58.5 70 9.4 48.9
11:10 1018 30.06 847 25.01 14.9 58.7 70 9.5 49.2
11:15 1018 30.06 847 25.01 15 58.9 72 9.9 49.9
11:20 1018 30.06 847 25.01 14.7 58.5 76 10.5 50.9
11:25 1018 30.06 847 25.01 14.9 58.8 72 9.9 49.8
11:30 1018 30.06 847 25.01 15.1 59.1 74 10.4 50.7
11:35 1018 30.06 847 25.01 15.5 59.9 69 9.9 49.8
11:40 1018 30.06 847 25.01 15.9 60.5 67 9.9 49.8
11:45 1018 30.06 847 25.01 16.2 61.2 66 9.9 49.9
11:50 1018 30.06 847 25.01 16.6 61.9 65 10.1 50.1
11:55 1018 30.06 847 25.01 17.2 62.9 64 10.3 50.6
12:00 1018 30.06 847 25.01 17.2 62.9 64 10.3 50.6
12:05 1018 30.06 847 25.01 17.3 63.2 62 10.1 50.1
12:10 1018 30.06 847 25.01 17.7 63.9 61 10.1 50.2
12:15 1018 30.06 847 25.01 18 64.4 60 10.1 50.2
12:20 1018 30.06 847 25.01 17 62.6 66 10.6 51.1
12:25 1018 30.06 847 25.01 16.8 62.2 65 10.3 50.6
12:30 1018 30.06 847 25.01 17 62.6 64 10.2 50.3
12:35 1018 30.06 847 25.01 17.3 63.2 62 10.2 50.3
12:40 1018 30.06 847 25.01 17.7 63.8 62 10.4 50.7
12:45 1018 30.06 847 25.01 17.9 64.1 61 10.3 50.5
12:50 1018 30.06 847 25.01 17.7 63.8 62 10.4 50.8
12:55 1018 30.06 847 25.01 18.2 64.7 60 10.4 50.8
13:00 1018 30.06 847 25.01 18 64.4 60 10.3 50.6
13:05 1018 30.06 847 25.01 17.9 64.2 62 10.6 51.1
13:10 1018 30.06 847 25.01 18.1 64.6 60 10.3 50.6
13:15 1018 30.06 847 25.01 18.3 65 59 10.3 50.6
13:20 1018 30.06 847 25.01 18.6 65.5 59 10.5 50.9
13:25 1018 30.06 847 25.01 18.1 64.5 60 10.4 50.6
13:30 1018 30.06 847 25.01 18.1 64.5 59 10 50
13:35 1018 30.06 847 25.01 18.7 65.6 57 10.2 50.4
13:40 1018 30.06 847 25.01 19 66.1 70 13.4 56.1
13:45 1018 30.06 847 25.01 18.7 65.7 60 10.9 51.5
13:50 1018 30.06 847 25.01 19.6 67.3 55 10.3 50.6
13:55 1017 30.03 847 25.01 19.7 67.4 54 10.1 50.2
14:00 1017 30.03 847 25.01 19.5 67 53 9.7 49.5
14:05 1017 30.03 847 25.01 19.6 67.3 52 9.5 49.1
14:10 1017 30.03 847 25.01 20.1 68.1 51 9.7 49.5
14:15 1017 30.03 847 25.01 19.3 66.7 54 9.8 49.6
14:20 1017 30.03 846 24.98 19.3 66.8 53 9.7 49.4
14:25 1017 30.03 846 24.98 20.3 68.5 47 8.8 47.9
14:30 1017 30.03 846 24.98 20.5 68.9 51 10.1 50.2
14:35 1017 30.03 846 24.98 20.9 69.6 46 9 48.2
14:40 1017 30.03 846 24.98 20.7 69.2 49 9.7 49.5
14:45 1017 30.03 846 24.98 20.8 69.4 51 10.3 50.6
14:50 1017 30.03 846 24.98 20.4 68.6 52 10.3 50.6
14:55 1017 30.03 846 24.98 19.7 67.5 54 10.2 50.4
15:00 1017 30.03 846 24.98 20.2 68.4 52 10.1 50.1
15:05 1017 30.03 846 24.98 19.8 67.6 53 10 49.9
15:10 1017 30.03 846 24.98 19.8 67.7 53 10 49.9
15:15 1017 30.03 847 25.01 19.8 67.6 52 9.9 49.8
15:20 1017 30.03 847 25.01 19.8 67.6 51 9.3 48.8
15:25 1018 30.06 847 25.01 19.6 67.4 50 9.2 48.6
15:30 1017 30.03 847 25.01 20 68 48 8.8 47.8
15:35 1017 30.03 847 25.01 20.4 68.6 50 9.7 49.5
15:40 1017 30.03 847 25.01 20 67.9 50 9.3 48.7
15:45 1018 30.06 847 25.01 20.1 68.2 48 9 48.2
15:50 1017 30.03 847 25.01 20.4 68.8 48 9.2 48.6
15:55 1017 30.03 847 25.01 20.7 69.3 44 8.3 47
16:00 1017 30.03 847 25.01 20.5 68.9 47 8.9 48.1
16:05 1018 30.06 847 25.01 20.3 68.5 48 9.1 48.4
16:10 1018 30.06 847 25.01 19.8 67.7 50 9.3 48.7
16:15 1018 30.06 847 25.01 19.7 67.5 49 9 48.1
16:20 1018 30.06 847 25.01 19.8 67.6 50 9.2 48.5
16:25 1018 30.06 847 25.01 19.4 66.9 53 9.6 49.3
16:30 1018 30.06 847 25.01 19.3 66.8 54 9.9 49.7
16:35 1018 30.06 847 25.01 18.6 65.6 65 12.1 53.8
16:40 1018 30.06 847 25.01 17.9 64.2 71 12.6 54.6
16:45 1018 30.06 847 25.01 17.7 63.8 68 11.8 53.2
16:50 1018 30.06 847 25.01 17.4 63.3 74 12.7 54.8
16:55 1018 30.06 847 25.01 17.1 62.7 74 12.4 54.3
17:00 1018 30.06 847 25.01 16.6 62 76 12.5 54.5
17:05 1018 30.06 847 25.01 16.2 61.1 81 13 55.4
17:10 1018 30.06 847 25.01 15.7 60.3 85 13.3 55.9
17:15 1018 30.06 847 25.01 16 60.9 83 13.2 55.7
17:20 1018 30.06 847 25.01 15.9 60.6 81 12.6 54.7
17:25 1018 30.06 847 25.01 16.2 61.2 76 12 53.6
17:30 1018 30.06 847 25.01 16.6 61.8 73 11.7 53
17:35 1018 30.06 847 25.01 16.8 62.3 70 11.4 52.5
17:40 1018 30.06 847 25.01 16.9 62.4 72 12 53.6
17:45 1018 30.06 847 25.01 17 62.5 73 12.2 54
17:50 1018 30.06 847 25.01 17 62.6 73 12.1 53.8
17:55 1018 30.06 847 25.01 16.9 62.4 76 12.7 54.9
18:00 1018 30.06 847 25.01 16.8 62.3 76 12.6 54.6
18:05 1018 30.06 847 25.01 16.8 62.2 74 12.2 53.9
18:10 1018 30.06 847 25.01 16.8 62.3 74 12.3 54.1
18:15 1018 30.06 847 25.01 17.1 62.7 74 12.4 54.3
18:20 1018 30.06 847 25.01 17 62.6 74 12.3 54.1
18:25 1018 30.06 847 25.01 17.3 63.1 73 12.4 54.4
18:30 1018 30.06 847 25.01 17.4 63.4 75 13 55.4
18:35 1018 30.06 847 25.01 17.4 63.2 74 12.7 54.9
18:40 1018 30.06 847 25.01 17.9 64.3 70 12.5 54.5
18:45 1018 30.06 847 25.01 18.6 65.4 69 12.8 55.1
18:50 1018 30.06 847 25.01 18.5 65.2 70 12.9 55.1
18:55 1018 30.06 847 25.01 18.6 65.4 66 12.2 53.9
19:00 1018 30.06 847 25.01 18.1 64.7 70 12.6 54.6
19:05 1018 30.06 847 25.01 17.8 64 68 11.9 53.4
19:10 1017 30.03 847 25.01 17.4 63.4 70 12 53.6
19:15 1018 30.06 847 25.01 17.4 63.3 71 12.2 54
19:20 1018 30.06 847 25.01 17.3 63.1 71 12.1 53.7
19:25 1018 30.06 847 25.01 17.3 63.2 71 12 53.6
19:30 1018 30.06 847 25.01 17.3 63.2 71 12.2 53.9
19:35 1018 30.06 847 25.01 17.3 63.1 73 12.4 54.3
19:40 1018 30.06 847 25.01 17.1 62.8 74 12.4 54.4
19:45 1018 30.06 847 25.01 17 62.6 74 12.4 54.2
19:50 1018 30.06 847 25.01 17.3 63.1 73 12.4 54.4
19:55 1018 30.06 847 25.01 17.2 63 71 12 53.6
20:00 1018 30.06 847 25.01 17.3 63.1 71 11.9 53.5
20:05 1018 30.06 847 25.01 17 62.6 72 12 53.6
20:10 1018 30.06 847 25.01 16.8 62.3 73 12.1 53.8
20:15 1018 30.06 847 25.01 16.6 61.9 74 12.1 53.8
20:20 1018 30.06 847 25.01 16.5 61.7 75 12.2 54
20:25 1018 30.06 847 25.01 16.3 61.4 77 12.3 54.1
20:30 1018 30.06 847 25.01 16.2 61.1 78 12.4 54.3
20:35 1018 30.06 847 25.01 16 60.9 79 12.5 54.5
20:40 1018 30.06 847 25.01 15.9 60.7 80 12.6 54.7
20:45 1018 30.06 847 25.01 15.9 60.5 81 12.5 54.6
20:50 1018 30.06 847 25.01 15.7 60.3 81 12.5 54.6
20:55 1018 30.06 847 25.01 15.6 60 82 12.5 54.4
21:00 1018 30.06 847 25.01 15.4 59.7 82 12.4 54.3
21:05 1018 30.06 847 25.01 15.3 59.5 83 12.3 54.2
21:10 1018 30.06 848 25.04 15.2 59.3 82 12.2 54
21:15 1018 30.06 848 25.04 15.2 59.3 83 12.3 54.1
21:20 1018 30.06 848 25.04 14.8 58.7 85 12.3 54.1
21:25 1019 30.09 848 25.04 14.7 58.5 84 12.1 53.8
21:30 1019 30.09 848 25.04 14.8 58.6 84 12.2 53.9
21:35 1019 30.09 848 25.04 14.7 58.5 84 12 53.6
21:40 1019 30.09 848 25.04 14.8 58.6 84 12.1 53.8
21:45 1019 30.09 848 25.04 14.9 58.8 83 12 53.6
21:50 1019 30.09 848 25.04 15 58.9 82 12 53.6
21:55 1019 30.09 848 25.04 14.9 58.8 83 12 53.7
22:00 1019 30.09 849 25.07 15 59 79 11.4 52.4
22:05 1020 30.12 849 25.07 14.7 58.4 86 12.4 54.4
22:10 1020 30.12 849 25.07 13.4 56.1 95 12.6 54.6
22:15 1020 30.12 849 25.07 12.7 54.9 97 12.3 54.1
22:20 1020 30.12 849 25.07 12.5 54.6 98 12.2 53.9
22:25 1020 30.12 849 25.07 12.4 54.4 97 12 53.6
22:30 1020 30.12 849 25.07 12.4 54.4 97 11.9 53.4
22:35 1020 30.12 849 25.07 12.5 54.5 97 12 53.5
22:40 1020 30.12 849 25.07 12.5 54.6 97 12 53.6
22:45 1020 30.12 849 25.07 12.5 54.5 97 12.1 53.8
22:50 1020 30.12 849 25.07 12.6 54.7 98 12.3 54.2
22:55 1020 30.12 849 25.07 12.7 54.8 96 12 53.6
23:00 1020 30.12 849 25.07 12.9 55.1 95 12 53.6
23:05 1020 30.12 849 25.07 13 55.4 94 12.1 53.8
23:10 1020 30.12 849 25.07 12.9 55.3 96 12.3 54.1
23:15 1020 30.12 849 25.07 13 55.4 94 12.1 53.8
23:20 1020 30.12 849 25.07 12.9 55.2 94 12 53.6
23:25 1020 30.12 849 25.07 12.9 55.2 93 11.8 53.2
23:30 1020 30.12 849 25.07 13 55.3 95 12.1 53.8
23:35 1020 30.12 849 25.07 12.8 55 96 12.2 53.9
23:40 1020 30.12 849 25.07 12.7 54.9 97 12.2 54
23:45 1020 30.12 849 25.07 12.7 54.9 96 12.1 53.9
23:50 1020 30.12 849 25.07 12.6 54.6 95 11.9 53.4
23:55 1020 30.12 849 25.07 12.5 54.4 95 11.7 53.1
24:00 1020 30.12 849 25.07 12.6 54.7 94 11.7 53